sensor_id;sensor_type;location;lat;lon;timestamp;pressure;altitude;pressure_sealevel;temperature;humidity
57086;BME280;42964;42.910;23.792;2024-02-04T00:00:19;98060.66;;;1.50;72.65
57086;BME280;42964;42.910;23.792;2024-02-04T00:05:18;98085.75;;;1.82;73.09
57086;BME280;42964;42.910;23.792;2024-02-04T00:10:17;98082.44;;;1.84;72.88
57086;BME280;42964;42.910;23.792;2024-02-04T00:15:17;98054.53;;;1.68;72.98
57086;BME280;42964;42.910;23.792;2024-02-04T00:20:16;98066.09;;;1.81;73.49
57086;BME280;42964;42.910;23.792;2024-02-04T00:25:15;98022.59;;;1.58;73.70
57086;BME280;42964;42.910;23.792;2024-02-04T00:30:18;98076.28;;;2.02;73.90
57086;BME280;42964;42.910;23.792;2024-02-04T00:35:17;98030.28;;;1.81;73.51
57086;BME280;42964;42.910;23.792;2024-02-04T00:40:16;98068.31;;;2.16;74.00
57086;BME280;42964;42.910;23.792;2024-02-04T00:45:15;98062.47;;;2.21;74.05
57086;BME280;42964;42.910;23.792;2024-02-04T00:50:15;98064.16;;;2.20;73.89
57086;BME280;42964;42.910;23.792;2024-02-04T00:55:14;98043.75;;;2.22;73.77
57086;BME280;42964;42.910;23.792;2024-02-04T01:00:13;98028.28;;;2.19;74.30
57086;BME280;42964;42.910;23.792;2024-02-04T01:05:12;98022.75;;;2.32;73.94
57086;BME280;42964;42.910;23.792;2024-02-04T01:10:13;97976.50;;;2.27;73.14
57086;BME280;42964;42.910;23.792;2024-02-04T01:15:12;98033.28;;;2.64;73.16
57086;BME280;42964;42.910;23.792;2024-02-04T01:20:11;98006.50;;;2.55;73.27
57086;BME280;42964;42.910;23.792;2024-02-04T01:25:10;97989.56;;;2.59;73.58
57086;BME280;42964;42.910;23.792;2024-02-04T01:30:10;97956.50;;;2.41;73.38
57086;BME280;42964;42.910;23.792;2024-02-04T01:35:09;98005.41;;;2.98;73.03
57086;BME280;42964;42.910;23.792;2024-02-04T01:40:08;97989.03;;;2.95;73.02
57086;BME280;42964;42.910;23.792;2024-02-04T01:45:07;97950.63;;;2.69;72.66
57086;BME280;42964;42.910;23.792;2024-02-04T01:50:07;97930.03;;;2.66;72.82
57086;BME280;42964;42.910;23.792;2024-02-04T01:55:08;97880.19;;;2.31;73.15
57086;BME280;42964;42.910;23.792;2024-02-04T02:00:08;98010.25;;;2.65;73.24
57086;BME280;42964;42.910;23.792;2024-02-04T02:05:08;97974.19;;;2.59;72.91
57086;BME280;42964;42.910;23.792;2024-02-04T02:10:08;97977.16;;;2.71;72.65
57086;BME280;42964;42.910;23.792;2024-02-04T02:15:27;97905.53;;;2.49;71.99
57086;BME280;42964;42.910;23.792;2024-02-04T02:25:44;97978.00;;;2.97;71.63
57086;BME280;42964;42.910;23.792;2024-02-04T02:30:45;97933.84;;;2.79;71.70
57086;BME280;42964;42.910;23.792;2024-02-04T02:35:46;97917.47;;;2.74;71.49
57086;BME280;42964;42.910;23.792;2024-02-04T02:40:54;97950.75;;;2.99;71.52
57086;BME280;42964;42.910;23.792;2024-02-04T02:45:57;97921.81;;;2.76;71.36
57086;BME280;42964;42.910;23.792;2024-02-04T02:50:56;97904.25;;;2.62;71.63
57086;BME280;42964;42.910;23.792;2024-02-04T02:55:57;97961.19;;;3.06;71.88
57086;BME280;42964;42.910;23.792;2024-02-04T03:00:56;97979.44;;;3.15;71.66
57086;BME280;42964;42.910;23.792;2024-02-04T03:05:55;97944.84;;;3.02;71.67
57086;BME280;42964;42.910;23.792;2024-02-04T03:10:54;97957.66;;;3.02;72.13
57086;BME280;42964;42.910;23.792;2024-02-04T03:15:53;97802.00;;;2.15;71.49
57086;BME280;42964;42.910;23.792;2024-02-04T03:20:52;97954.53;;;3.11;71.40
57086;BME280;42964;42.910;23.792;2024-02-04T03:25:51;97983.34;;;3.31;71.72
57086;BME280;42964;42.910;23.792;2024-02-04T03:30:50;97972.22;;;3.30;71.53
57086;BME280;42964;42.910;23.792;2024-02-04T03:35:49;97934.78;;;3.08;71.53
57086;BME280;42964;42.910;23.792;2024-02-04T03:40:48;97930.38;;;3.04;71.94
57086;BME280;42964;42.910;23.792;2024-02-04T03:45:48;97996.50;;;3.41;71.68
57086;BME280;42964;42.910;23.792;2024-02-04T03:50:47;97959.88;;;3.18;71.39
57086;BME280;42964;42.910;23.792;2024-02-04T03:55:46;97986.19;;;3.40;71.44
57086;BME280;42964;42.910;23.792;2024-02-04T04:00:45;97943.53;;;3.15;71.64
57086;BME280;42964;42.910;23.792;2024-02-04T04:05:44;97986.03;;;3.35;71.84
57086;BME280;42964;42.910;23.792;2024-02-04T04:10:43;97978.97;;;3.28;71.62
57086;BME280;42964;42.910;23.792;2024-02-04T04:15:42;97754.00;;;2.08;71.51
57086;BME280;42964;42.910;23.792;2024-02-04T04:20:42;97957.63;;;3.00;72.83
57086;BME280;42964;42.910;23.792;2024-02-04T04:25:41;97987.75;;;3.08;73.40
57086;BME280;42964;42.910;23.792;2024-02-04T04:30:40;97912.78;;;2.61;73.35
57086;BME280;42964;42.910;23.792;2024-02-04T04:35:39;97906.41;;;2.49;73.45
57086;BME280;42964;42.910;23.792;2024-02-04T04:40:38;97964.59;;;2.79;72.74
57086;BME280;42964;42.910;23.792;2024-02-04T04:45:40;97972.19;;;2.76;73.06
57086;BME280;42964;42.910;23.792;2024-02-04T04:50:39;97924.38;;;2.51;72.87
57086;BME280;42964;42.910;23.792;2024-02-04T04:55:38;97994.16;;;2.95;73.35
57086;BME280;42964;42.910;23.792;2024-02-04T05:00:37;98005.44;;;3.00;73.46
57086;BME280;42964;42.910;23.792;2024-02-04T05:05:36;97994.94;;;2.92;73.72
57086;BME280;42964;42.910;23.792;2024-02-04T05:10:35;97984.16;;;3.02;73.63
57086;BME280;42964;42.910;23.792;2024-02-04T05:15:34;97959.88;;;2.91;73.99
57086;BME280;42964;42.910;23.792;2024-02-04T05:20:34;97778.47;;;1.74;74.48
57086;BME280;42964;42.910;23.792;2024-02-04T05:25:33;98023.91;;;2.64;75.19
57086;BME280;42964;42.910;23.792;2024-02-04T05:30:33;98043.81;;;2.47;75.57
57086;BME280;42964;42.910;23.792;2024-02-04T05:35:32;97950.69;;;1.97;75.47
57086;BME280;42964;42.910;23.792;2024-02-04T05:40:31;98005.66;;;2.55;75.22
57086;BME280;42964;42.910;23.792;2024-02-04T05:45:30;98038.75;;;2.74;75.05
57086;BME280;42964;42.910;23.792;2024-02-04T05:50:29;98033.28;;;2.64;74.46
57086;BME280;42964;42.910;23.792;2024-02-04T05:55:29;98045.13;;;2.86;74.54
57086;BME280;42964;42.910;23.792;2024-02-04T06:00:29;98069.50;;;2.98;73.77
57086;BME280;42964;42.910;23.792;2024-02-04T06:05:28;98039.13;;;2.85;73.72
57086;BME280;42964;42.910;23.792;2024-02-04T06:10:27;98069.91;;;3.11;73.47
57086;BME280;42964;42.910;23.792;2024-02-04T06:15:26;98077.22;;;3.26;74.02
57086;BME280;42964;42.910;23.792;2024-02-04T06:20:25;98061.47;;;3.40;73.28
57086;BME280;42964;42.910;23.792;2024-02-04T06:25:24;98054.19;;;3.27;72.83
57086;BME280;42964;42.910;23.792;2024-02-04T06:30:23;98010.50;;;2.47;74.91
57086;BME280;42964;42.910;23.792;2024-02-04T06:35:22;98082.44;;;2.77;74.91
57086;BME280;42964;42.910;23.792;2024-02-04T06:40:21;98009.63;;;2.23;75.31
57086;BME280;42964;42.910;23.792;2024-02-04T06:45:20;98070.00;;;2.64;74.94
57086;BME280;42964;42.910;23.792;2024-02-04T06:50:19;98096.34;;;2.84;75.21
57086;BME280;42964;42.910;23.792;2024-02-04T06:55:18;98049.09;;;3.01;74.61
57086;BME280;42964;42.910;23.792;2024-02-04T07:00:17;98049.84;;;3.25;74.58
57086;BME280;42964;42.910;23.792;2024-02-04T07:05:16;98094.09;;;3.72;73.95
57086;BME280;42964;42.910;23.792;2024-02-04T07:10:16;98071.22;;;3.78;73.05
57086;BME280;42964;42.910;23.792;2024-02-04T07:15:15;97868.78;;;3.02;73.49
57086;BME280;42964;42.910;23.792;2024-02-04T07:20:14;98077.50;;;4.46;70.59
57086;BME280;42964;42.910;23.792;2024-02-04T07:25:13;98047.94;;;4.62;70.62
57086;BME280;42964;42.910;23.792;2024-02-04T07:30:12;98048.00;;;4.96;69.77
57086;BME280;42964;42.910;23.792;2024-02-04T07:35:11;98015.72;;;5.07;68.39
57086;BME280;42964;42.910;23.792;2024-02-04T07:40:11;98026.88;;;5.44;67.45
57086;BME280;42964;42.910;23.792;2024-02-04T07:45:10;98058.34;;;5.68;66.19
57086;BME280;42964;42.910;23.792;2024-02-04T07:50:09;98061.00;;;5.71;66.23
57086;BME280;42964;42.910;23.792;2024-02-04T07:55:08;98060.00;;;6.03;65.83
57086;BME280;42964;42.910;23.792;2024-02-04T08:00:07;98047.47;;;6.19;64.45
57086;BME280;42964;42.910;23.792;2024-02-04T08:05:08;98031.03;;;6.57;64.40
57086;BME280;42964;42.910;23.792;2024-02-04T08:10:08;98057.03;;;7.16;64.51
57086;BME280;42964;42.910;23.792;2024-02-04T08:15:07;98053.31;;;7.49;62.71
57086;BME280;42964;42.910;23.792;2024-02-04T08:20:06;98016.19;;;7.41;61.42
57086;BME280;42964;42.910;23.792;2024-02-04T08:25:06;98025.50;;;7.89;62.15
57086;BME280;42964;42.910;23.792;2024-02-04T08:30:05;98029.97;;;8.01;60.92
57086;BME280;42964;42.910;23.792;2024-02-04T08:35:05;98010.00;;;7.89;58.97
57086;BME280;42964;42.910;23.792;2024-02-04T08:40:07;97947.81;;;7.77;58.83
57086;BME280;42964;42.910;23.792;2024-02-04T08:45:07;98018.06;;;8.12;58.11
57086;BME280;42964;42.910;23.792;2024-02-04T08:50:06;98030.34;;;8.32;58.14
57086;BME280;42964;42.910;23.792;2024-02-04T08:55:06;97982.81;;;8.19;58.83
57086;BME280;42964;42.910;23.792;2024-02-04T09:00:05;97796.41;;;7.18;57.91
57086;BME280;42964;42.910;23.792;2024-02-04T09:05:07;97935.47;;;8.24;58.54
57086;BME280;42964;42.910;23.792;2024-02-04T09:10:06;98018.66;;;8.64;58.38
57086;BME280;42964;42.910;23.792;2024-02-04T09:15:06;98026.75;;;8.97;57.43
57086;BME280;42964;42.910;23.792;2024-02-04T09:20:06;98030.25;;;9.02;57.59
57086;BME280;42964;42.910;23.792;2024-02-04T09:25:06;98048.66;;;9.28;57.46
57086;BME280;42964;42.910;23.792;2024-02-04T09:30:05;98045.41;;;9.52;56.46
57086;BME280;42964;42.910;23.792;2024-02-04T09:35:05;98001.47;;;9.67;56.29
57086;BME280;42964;42.910;23.792;2024-02-04T09:40:04;98026.81;;;10.16;55.60
57086;BME280;42964;42.910;23.792;2024-02-04T09:45:04;98021.72;;;10.36;55.14
57086;BME280;42964;42.910;23.792;2024-02-04T09:50:03;97982.88;;;10.60;53.14
57086;BME280;42964;42.910;23.792;2024-02-04T09:55:02;98033.22;;;11.33;53.68
57086;BME280;42964;42.910;23.792;2024-02-04T10:00:05;97948.34;;;11.32;52.01
57086;BME280;42964;42.910;23.792;2024-02-04T10:05:05;98019.28;;;12.06;50.31
57086;BME280;42964;42.910;23.792;2024-02-04T10:10:05;98019.19;;;12.39;50.12
57086;BME280;42964;42.910;23.792;2024-02-04T10:15:05;97998.94;;;12.96;49.67
57086;BME280;42964;42.910;23.792;2024-02-04T10:20:05;98016.66;;;13.67;47.16
57086;BME280;42964;42.910;23.792;2024-02-04T10:25:06;97982.59;;;13.82;47.28
57086;BME280;42964;42.910;23.792;2024-02-04T10:30:06;98026.72;;;14.04;45.45
57086;BME280;42964;42.910;23.792;2024-02-04T10:35:05;98005.72;;;14.16;44.59
57086;BME280;42964;42.910;23.792;2024-02-04T10:40:04;98016.25;;;14.07;44.89
57086;BME280;42964;42.910;23.792;2024-02-04T10:45:07;97974.06;;;13.63;43.50
57086;BME280;42964;42.910;23.792;2024-02-04T10:50:08;98010.09;;;13.13;44.09
57086;BME280;42964;42.910;23.792;2024-02-04T10:55:08;98003.09;;;13.22;44.61
57086;BME280;42964;42.910;23.792;2024-02-04T11:00:08;97972.72;;;13.19;44.87
57086;BME280;42964;42.910;23.792;2024-02-04T11:05:10;97968.22;;;13.35;44.66
57086;BME280;42964;42.910;23.792;2024-02-04T11:10:10;97983.63;;;13.66;44.36
57086;BME280;42964;42.910;23.792;2024-02-04T11:15:10;97923.09;;;13.30;44.37
57086;BME280;42964;42.910;23.792;2024-02-04T11:30:43;97947.91;;;13.72;45.01
57086;BME280;42964;42.910;23.792;2024-02-04T11:35:42;97880.31;;;13.52;44.15
57086;BME280;42964;42.910;23.792;2024-02-04T11:40:41;97914.69;;;13.88;43.81
57086;BME280;42964;42.910;23.792;2024-02-04T11:45:41;97925.91;;;13.96;43.31
57086;BME280;42964;42.910;23.792;2024-02-04T11:50:41;97915.22;;;14.18;43.77
57086;BME280;42964;42.910;23.792;2024-02-04T11:55:41;97849.59;;;13.79;42.63
57086;BME280;42964;42.910;23.792;2024-02-04T12:00:42;97922.88;;;14.30;42.51
57086;BME280;42964;42.910;23.792;2024-02-04T12:05:46;97838.47;;;13.65;41.91
57086;BME280;42964;42.910;23.792;2024-02-04T12:10:45;97902.09;;;14.23;42.86
57086;BME280;42964;42.910;23.792;2024-02-04T12:15:46;97891.66;;;14.24;42.88
57086;BME280;42964;42.910;23.792;2024-02-04T12:20:47;97913.44;;;14.20;42.68
57086;BME280;42964;42.910;23.792;2024-02-04T12:25:49;97881.75;;;13.81;42.81
57086;BME280;42964;42.910;23.792;2024-02-04T12:30:53;97894.88;;;13.75;43.05
57086;BME280;42964;42.910;23.792;2024-02-04T12:35:57;97867.25;;;13.57;43.55
57086;BME280;42964;42.910;23.792;2024-02-04T12:41:02;97899.94;;;13.87;43.51
57086;BME280;42964;42.910;23.792;2024-02-04T12:46:01;97883.50;;;13.82;43.22
57086;BME280;42964;42.910;23.792;2024-02-04T12:51:02;97862.69;;;13.74;44.00
57086;BME280;42964;42.910;23.792;2024-02-04T12:56:02;97871.06;;;14.01;44.14
57086;BME280;42964;42.910;23.792;2024-02-04T13:01:01;97801.28;;;13.47;43.66
57086;BME280;42964;42.910;23.792;2024-02-04T13:06:01;97869.75;;;13.66;43.62
57086;BME280;42964;42.910;23.792;2024-02-04T13:11:00;97867.06;;;13.74;44.15
57086;BME280;42964;42.910;23.792;2024-02-04T13:15:59;97857.47;;;13.74;44.59
57086;BME280;42964;42.910;23.792;2024-02-04T13:20:58;97878.22;;;13.87;44.31
57086;BME280;42964;42.910;23.792;2024-02-04T13:25:57;97890.59;;;13.68;43.31
57086;BME280;42964;42.910;23.792;2024-02-04T13:30:56;97782.69;;;12.99;43.31
57086;BME280;42964;42.910;23.792;2024-02-04T13:35:55;97900.97;;;13.72;43.68
57086;BME280;42964;42.910;23.792;2024-02-04T13:40:55;97888.91;;;13.64;43.75
57086;BME280;42964;42.910;23.792;2024-02-04T13:45:54;97908.72;;;13.78;43.45
57086;BME280;42964;42.910;23.792;2024-02-04T13:50:53;97855.22;;;13.39;43.84
57086;BME280;42964;42.910;23.792;2024-02-04T13:55:53;97866.41;;;13.52;44.58
57086;BME280;42964;42.910;23.792;2024-02-04T14:00:52;97884.59;;;13.58;45.26
57086;BME280;42964;42.910;23.792;2024-02-04T14:05:51;97879.50;;;13.44;44.77
57086;BME280;42964;42.910;23.792;2024-02-04T14:10:50;97865.03;;;13.14;44.91
57086;BME280;42964;42.910;23.792;2024-02-04T14:15:50;97807.31;;;12.64;45.17
57086;BME280;42964;42.910;23.792;2024-02-04T14:20:49;97870.44;;;12.96;44.93
57086;BME280;42964;42.910;23.792;2024-02-04T14:25:48;97822.19;;;12.50;44.64
57086;BME280;42964;42.910;23.792;2024-02-04T14:30:47;97879.16;;;12.90;44.26
57086;BME280;42964;42.910;23.792;2024-02-04T14:35:46;97880.75;;;13.08;44.41
57086;BME280;42964;42.910;23.792;2024-02-04T14:40:45;97852.28;;;12.85;44.14
57086;BME280;42964;42.910;23.792;2024-02-04T14:45:44;97892.28;;;12.76;43.63
57086;BME280;42964;42.910;23.792;2024-02-04T14:50:43;97883.56;;;12.82;44.03
57086;BME280;42964;42.910;23.792;2024-02-04T14:55:42;97874.84;;;12.89;42.84
57086;BME280;42964;42.910;23.792;2024-02-04T15:00:42;97846.88;;;13.09;42.75
57086;BME280;42964;42.910;23.792;2024-02-04T15:05:41;97866.88;;;13.06;43.23
57086;BME280;42964;42.910;23.792;2024-02-04T15:10:40;97898.97;;;13.09;43.37
57086;BME280;42964;42.910;23.792;2024-02-04T15:15:39;97892.84;;;13.13;43.29
57086;BME280;42964;42.910;23.792;2024-02-04T15:20:38;97840.94;;;12.93;43.11
57086;BME280;42964;42.910;23.792;2024-02-04T15:25:38;97885.88;;;13.14;43.63
57086;BME280;42964;42.910;23.792;2024-02-04T15:30:37;97757.47;;;11.99;43.52
57086;BME280;42964;42.910;23.792;2024-02-04T15:35:36;97894.84;;;12.84;43.29
57086;BME280;42964;42.910;23.792;2024-02-04T15:40:35;97886.41;;;12.51;44.72
57086;BME280;42964;42.910;23.792;2024-02-04T15:45:35;97909.06;;;12.29;45.69
57086;BME280;42964;42.910;23.792;2024-02-04T15:50:34;97929.81;;;12.43;45.44
57086;BME280;42964;42.910;23.792;2024-02-04T15:55:33;97909.06;;;12.34;44.86
57086;BME280;42964;42.910;23.792;2024-02-04T16:00:32;97929.06;;;12.13;44.37
57086;BME280;42964;42.910;23.792;2024-02-04T16:05:31;97918.63;;;12.25;44.31
57086;BME280;42964;42.910;23.792;2024-02-04T16:10:31;97855.41;;;12.06;43.87
57086;BME280;42964;42.910;23.792;2024-02-04T16:15:30;97923.91;;;12.07;45.01
57086;BME280;42964;42.910;23.792;2024-02-04T16:20:29;97910.09;;;11.93;44.90
57086;BME280;42964;42.910;23.792;2024-02-04T16:25:28;97908.41;;;11.76;44.25
57086;BME280;42964;42.910;23.792;2024-02-04T16:30:30;97883.34;;;11.55;44.58
57086;BME280;42964;42.910;23.792;2024-02-04T16:35:29;97744.13;;;10.76;44.54
57086;BME280;42964;42.910;23.792;2024-02-04T16:40:28;97903.31;;;11.24;45.81
57086;BME280;42964;42.910;23.792;2024-02-04T16:45:27;97895.56;;;10.99;46.19
57086;BME280;42964;42.910;23.792;2024-02-04T16:50:27;97921.50;;;11.10;46.67
57086;BME280;42964;42.910;23.792;2024-02-04T16:55:26;97989.91;;;11.01;47.23
57086;BME280;42964;42.910;23.792;2024-02-04T17:00:25;97952.69;;;10.87;46.60
57086;BME280;42964;42.910;23.792;2024-02-04T17:05:25;97947.50;;;10.90;47.30
57086;BME280;42964;42.910;23.792;2024-02-04T17:10:25;97987.31;;;11.00;47.02
57086;BME280;42964;42.910;23.792;2024-02-04T17:15:24;97990.78;;;11.19;46.01
57086;BME280;42964;42.910;23.792;2024-02-04T17:20:25;97996.81;;;11.02;46.26
57086;BME280;42964;42.910;23.792;2024-02-04T17:25:30;98002.03;;;11.04;47.13
57086;BME280;42964;42.910;23.792;2024-02-04T17:30:31;98008.06;;;10.98;47.50
57086;BME280;42964;42.910;23.792;2024-02-04T17:35:31;97975.97;;;10.67;47.90
57086;BME280;42964;42.910;23.792;2024-02-04T17:40:30;98014.03;;;10.70;47.73
57086;BME280;42964;42.910;23.792;2024-02-04T17:45:30;97983.78;;;10.73;47.82
57086;BME280;42964;42.910;23.792;2024-02-04T17:50:29;98015.81;;;10.83;47.56
57086;BME280;42964;42.910;23.792;2024-02-04T17:55:28;97915.16;;;9.84;48.73
57086;BME280;42964;42.910;23.792;2024-02-04T18:00:27;97959.19;;;9.74;48.91
57086;BME280;42964;42.910;23.792;2024-02-04T18:05:29;98037.97;;;10.01;49.59
57086;BME280;42964;42.910;23.792;2024-02-04T18:10:28;98042.19;;;9.82;49.89
57086;BME280;42964;42.910;23.792;2024-02-04T18:15:27;98022.81;;;9.34;50.46
57086;BME280;42964;42.910;23.792;2024-02-04T18:20:26;98046.91;;;9.27;51.17
57086;BME280;42964;42.910;23.792;2024-02-04T18:25:25;98051.84;;;9.02;52.03
57086;BME280;42964;42.910;23.792;2024-02-04T18:30:25;98040.19;;;8.62;52.68
57086;BME280;42964;42.910;23.792;2024-02-04T18:35:25;98053.09;;;8.59;52.62
57086;BME280;42964;42.910;23.792;2024-02-04T18:40:24;98054.44;;;8.29;53.57
57086;BME280;42964;42.910;23.792;2024-02-04T18:45:23;98035.09;;;7.98;53.93
57086;BME280;42964;42.910;23.792;2024-02-04T18:50:22;97760.25;;;5.99;55.00
57086;BME280;42964;42.910;23.792;2024-02-04T18:55:22;98005.72;;;7.35;55.46
57086;BME280;42964;42.910;23.792;2024-02-04T19:00:21;98062.09;;;7.60;56.24
57086;BME280;42964;42.910;23.792;2024-02-04T19:05:20;98059.97;;;7.36;56.76
57086;BME280;42964;42.910;23.792;2024-02-04T19:10:19;98043.34;;;7.20;57.19
57086;BME280;42964;42.910;23.792;2024-02-04T19:15:19;97981.19;;;6.58;58.81
57086;BME280;42964;42.910;23.792;2024-02-04T19:20:18;98055.59;;;6.83;60.49
57086;BME280;42964;42.910;23.792;2024-02-04T19:25:18;98058.34;;;6.93;59.15
57086;BME280;42964;42.910;23.792;2024-02-04T19:30:18;98054.03;;;6.93;59.04
57086;BME280;42964;42.910;23.792;2024-02-04T19:35:25;98040.97;;;6.82;58.96
57086;BME280;42964;42.910;23.792;2024-02-04T19:40:25;98002.44;;;6.45;58.50
57086;BME280;42964;42.910;23.792;2024-02-04T19:45:24;97976.31;;;6.26;58.70
57086;BME280;42964;42.910;23.792;2024-02-04T19:50:23;98033.78;;;6.66;58.35
57086;BME280;42964;42.910;23.792;2024-02-04T19:55:22;98031.84;;;6.56;58.23
57086;BME280;42964;42.910;23.792;2024-02-04T20:00:21;97972.69;;;6.16;58.66
57086;BME280;42964;42.910;23.792;2024-02-04T20:05:21;97996.69;;;6.15;58.60
57086;BME280;42964;42.910;23.792;2024-02-04T20:10:22;98035.59;;;6.26;58.74
57086;BME280;42964;42.910;23.792;2024-02-04T20:15:21;98033.63;;;6.14;59.61
57086;BME280;42964;42.910;23.792;2024-02-04T20:20:28;98041.75;;;5.93;60.23
57086;BME280;42964;42.910;23.792;2024-02-04T20:25:28;98057.28;;;5.96;60.93
57086;BME280;42964;42.910;23.792;2024-02-04T20:30:27;98044.94;;;5.82;60.79
57086;BME280;42964;42.910;23.792;2024-02-04T20:35:27;98061.41;;;5.88;61.07
57086;BME280;42964;42.910;23.792;2024-02-04T20:40:26;98025.63;;;5.64;61.33
57086;BME280;42964;42.910;23.792;2024-02-04T20:45:25;97987.50;;;5.46;60.83
57086;BME280;42964;42.910;23.792;2024-02-04T20:50:24;98040.50;;;5.76;60.35
57086;BME280;42964;42.910;23.792;2024-02-04T20:55:23;98053.34;;;5.74;60.35
57086;BME280;42964;42.910;23.792;2024-02-04T21:00:23;98004.28;;;5.32;61.24
57086;BME280;42964;42.910;23.792;2024-02-04T21:05:22;98034.09;;;5.59;60.98
57086;BME280;42964;42.910;23.792;2024-02-04T21:10:24;97966.78;;;5.05;61.02
57086;BME280;42964;42.910;23.792;2024-02-04T21:15:24;97936.25;;;4.84;61.55
57086;BME280;42964;42.910;23.792;2024-02-04T21:20:23;98025.44;;;5.19;62.38
57086;BME280;42964;42.910;23.792;2024-02-04T21:25:22;98032.94;;;5.11;62.86
57086;BME280;42964;42.910;23.792;2024-02-04T21:30:21;97962.84;;;4.52;63.36
57086;BME280;42964;42.910;23.792;2024-02-04T21:35:20;97983.66;;;4.61;64.13
57086;BME280;42964;42.910;23.792;2024-02-04T21:40:20;97933.94;;;4.27;64.07
57086;BME280;42964;42.910;23.792;2024-02-04T21:45:20;97972.22;;;4.49;64.94
57086;BME280;42964;42.910;23.792;2024-02-04T21:50:19;97951.47;;;4.42;64.95
57086;BME280;42964;42.910;23.792;2024-02-04T21:55:18;98001.28;;;4.80;65.23
57086;BME280;42964;42.910;23.792;2024-02-04T22:00:17;97979.09;;;4.50;65.86
57086;BME280;42964;42.910;23.792;2024-02-04T22:05:17;97989.88;;;4.70;65.10
57086;BME280;42964;42.910;23.792;2024-02-04T22:10:15;97995.50;;;4.56;66.09
57086;BME280;42964;42.910;23.792;2024-02-04T22:15:15;97944.47;;;4.04;66.30
57086;BME280;42964;42.910;23.792;2024-02-04T22:20:14;97997.19;;;4.23;66.15
57086;BME280;42964;42.910;23.792;2024-02-04T22:25:13;97971.44;;;4.20;65.62
57086;BME280;42964;42.910;23.792;2024-02-04T22:30:12;97966.03;;;4.11;66.15
57086;BME280;42964;42.910;23.792;2024-02-04T22:35:11;98028.72;;;4.18;66.08
57086;BME280;42964;42.910;23.792;2024-02-04T22:40:11;97957.50;;;4.12;65.85
57086;BME280;42964;42.910;23.792;2024-02-04T22:45:11;97873.84;;;3.58;65.78
57086;BME280;42964;42.910;23.792;2024-02-04T22:50:10;97930.31;;;3.89;66.18
57086;BME280;42964;42.910;23.792;2024-02-04T22:55:09;97971.25;;;4.14;65.97
57086;BME280;42964;42.910;23.792;2024-02-04T23:00:09;97933.88;;;3.94;66.22
57086;BME280;42964;42.910;23.792;2024-02-04T23:05:27;97957.38;;;4.07;66.32
57086;BME280;42964;42.910;23.792;2024-02-04T23:10:26;97876.06;;;3.76;66.47
57086;BME280;42964;42.910;23.792;2024-02-04T23:15:26;97943.78;;;4.12;66.43
57086;BME280;42964;42.910;23.792;2024-02-04T23:20:25;97913.03;;;4.13;66.37
57086;BME280;42964;42.910;23.792;2024-02-04T23:25:24;97915.66;;;4.16;66.27
57086;BME280;42964;42.910;23.792;2024-02-04T23:30:23;97902.25;;;3.95;67.59
57086;BME280;42964;42.910;23.792;2024-02-04T23:35:23;97842.38;;;3.64;67.63
57086;BME280;42964;42.910;23.792;2024-02-04T23:40:22;97864.91;;;3.74;67.21
57086;BME280;42964;42.910;23.792;2024-02-04T23:45:21;97774.06;;;3.36;67.36
57086;BME280;42964;42.910;23.792;2024-02-04T23:50:20;97749.75;;;3.23;67.54
57086;BME280;42964;42.910;23.792;2024-02-04T23:55:19;97842.91;;;3.84;67.23
